sensor_id;sensor_type;location;lat;lon;timestamp;pressure;altitude;pressure_sealevel;temperature;humidity
48874;BME280;66155;46.204;5.220;2024-01-25T00:02:12;100384.28;;;13.17;68.07
48874;BME280;66155;46.204;5.220;2024-01-25T00:07:12;100380.22;;;13.22;67.75
48874;BME280;66155;46.204;5.220;2024-01-25T00:12:13;100376.91;;;13.27;67.40
48874;BME280;66155;46.204;5.220;2024-01-25T00:17:13;100372.53;;;13.29;67.75
48874;BME280;66155;46.204;5.220;2024-01-25T00:22:14;100381.28;;;13.28;67.48
48874;BME280;66155;46.204;5.220;2024-01-25T00:27:14;100378.50;;;13.28;67.85
48874;BME280;66155;46.204;5.220;2024-01-25T00:32:14;100373.72;;;13.28;67.67
48874;BME280;66155;46.204;5.220;2024-01-25T00:37:15;100363.38;;;13.29;67.66
48874;BME280;66155;46.204;5.220;2024-01-25T00:42:16;100362.38;;;13.19;68.04
48874;BME280;66155;46.204;5.220;2024-01-25T00:47:16;100347.44;;;13.09;68.43
48874;BME280;66155;46.204;5.220;2024-01-25T00:52:17;100354.69;;;13.03;68.32
48874;BME280;66155;46.204;5.220;2024-01-25T00:57:18;100347.63;;;12.99;68.60
48874;BME280;66155;46.204;5.220;2024-01-25T01:02:21;100337.03;;;12.94;68.51
48874;BME280;66155;46.204;5.220;2024-01-25T01:07:22;100342.59;;;12.94;68.84
48874;BME280;66155;46.204;5.220;2024-01-25T01:12:22;100338.22;;;12.93;68.98
48874;BME280;66155;46.204;5.220;2024-01-25T01:17:23;100331.09;;;12.92;68.70
48874;BME280;66155;46.204;5.220;2024-01-25T01:22:23;100328.31;;;12.92;68.48
48874;BME280;66155;46.204;5.220;2024-01-25T01:27:23;100321.31;;;12.84;68.79
48874;BME280;66155;46.204;5.220;2024-01-25T01:32:24;100318.13;;;12.85;68.28
48874;BME280;66155;46.204;5.220;2024-01-25T01:37:24;100320.91;;;12.85;68.78
48874;BME280;66155;46.204;5.220;2024-01-25T01:42:25;100336.72;;;12.88;68.38
48874;BME280;66155;46.204;5.220;2024-01-25T01:47:26;100330.06;;;12.82;68.85
48874;BME280;66155;46.204;5.220;2024-01-25T01:52:27;100331.00;;;12.76;69.21
48874;BME280;66155;46.204;5.220;2024-01-25T01:57:28;100318.50;;;12.64;69.47
48874;BME280;66155;46.204;5.220;2024-01-25T02:02:29;100310.00;;;12.51;69.53
48874;BME280;66155;46.204;5.220;2024-01-25T02:07:30;100315.69;;;12.44;69.35
48874;BME280;66155;46.204;5.220;2024-01-25T02:12:30;100316.56;;;12.38;69.65
48874;BME280;66155;46.204;5.220;2024-01-25T02:17:31;100312.31;;;12.33;69.79
48874;BME280;66155;46.204;5.220;2024-01-25T02:22:32;100315.44;;;12.35;70.01
48874;BME280;66155;46.204;5.220;2024-01-25T02:27:32;100313.03;;;12.37;69.50
48874;BME280;66155;46.204;5.220;2024-01-25T02:32:38;100317.72;;;12.40;69.78
48874;BME280;66155;46.204;5.220;2024-01-25T02:37:39;100313.75;;;12.41;69.85
48874;BME280;66155;46.204;5.220;2024-01-25T02:42:40;100314.16;;;12.40;69.88
48874;BME280;66155;46.204;5.220;2024-01-25T02:47:40;100309.03;;;12.38;69.93
48874;BME280;66155;46.204;5.220;2024-01-25T02:52:41;100309.47;;;12.37;69.80
48874;BME280;66155;46.204;5.220;2024-01-25T02:57:41;100313.78;;;12.38;70.16
48874;BME280;66155;46.204;5.220;2024-01-25T03:02:42;100301.19;;;12.33;70.36
48874;BME280;66155;46.204;5.220;2024-01-25T03:07:42;100302.00;;;12.30;70.42
48874;BME280;66155;46.204;5.220;2024-01-25T03:12:43;100293.75;;;12.27;70.64
48874;BME280;66155;46.204;5.220;2024-01-25T03:17:43;100299.69;;;12.29;70.46
48874;BME280;66155;46.204;5.220;2024-01-25T03:22:43;100293.47;;;12.21;70.88
48874;BME280;66155;46.204;5.220;2024-01-25T03:27:44;100279.19;;;12.19;70.82
48874;BME280;66155;46.204;5.220;2024-01-25T03:32:46;100288.72;;;12.18;70.88
48874;BME280;66155;46.204;5.220;2024-01-25T03:37:46;100289.59;;;12.15;70.94
48874;BME280;66155;46.204;5.220;2024-01-25T03:42:47;100297.13;;;12.14;70.80
48874;BME280;66155;46.204;5.220;2024-01-25T03:47:48;100286.13;;;12.07;70.84
48874;BME280;66155;46.204;5.220;2024-01-25T03:52:48;100278.59;;;12.08;70.89
48874;BME280;66155;46.204;5.220;2024-01-25T03:57:49;100282.25;;;12.01;71.26
48874;BME280;66155;46.204;5.220;2024-01-25T04:02:49;100281.06;;;12.02;70.92
48874;BME280;66155;46.204;5.220;2024-01-25T04:07:50;100287.41;;;12.03;70.76
48874;BME280;66155;46.204;5.220;2024-01-25T04:12:50;100282.56;;;12.07;70.92
48874;BME280;66155;46.204;5.220;2024-01-25T04:17:51;100273.91;;;12.01;71.06
48874;BME280;66155;46.204;5.220;2024-01-25T04:22:53;100287.41;;;12.03;71.22
48874;BME280;66155;46.204;5.220;2024-01-25T04:27:53;100286.25;;;12.00;71.10
48874;BME280;66155;46.204;5.220;2024-01-25T04:32:54;100283.47;;;12.00;71.41
48874;BME280;66155;46.204;5.220;2024-01-25T04:37:54;100277.56;;;11.98;71.38
48874;BME280;66155;46.204;5.220;2024-01-25T04:42:55;100273.19;;;11.97;71.63
48874;BME280;66155;46.204;5.220;2024-01-25T04:47:55;100281.50;;;12.01;71.26
48874;BME280;66155;46.204;5.220;2024-01-25T04:52:55;100271.13;;;12.05;70.87
48874;BME280;66155;46.204;5.220;2024-01-25T04:57:56;100271.78;;;12.12;70.88
48874;BME280;66155;46.204;5.220;2024-01-25T05:02:56;100284.75;;;12.19;70.41
48874;BME280;66155;46.204;5.220;2024-01-25T05:07:57;100278.88;;;12.13;70.69
48874;BME280;66155;46.204;5.220;2024-01-25T05:12:57;100274.97;;;12.11;70.83
48874;BME280;66155;46.204;5.220;2024-01-25T05:17:57;100282.44;;;12.14;71.13
48874;BME280;66155;46.204;5.220;2024-01-25T05:22:59;100281.31;;;12.11;70.81
48874;BME280;66155;46.204;5.220;2024-01-25T05:28:00;100286.47;;;12.09;71.23
48874;BME280;66155;46.204;5.220;2024-01-25T05:33:00;100283.78;;;12.06;71.39
48874;BME280;66155;46.204;5.220;2024-01-25T05:38:01;100277.06;;;12.03;70.95
48874;BME280;66155;46.204;5.220;2024-01-25T05:43:01;100284.22;;;12.04;71.14
48874;BME280;66155;46.204;5.220;2024-01-25T05:48:03;100271.88;;;12.05;70.94
48874;BME280;66155;46.204;5.220;2024-01-25T05:53:03;100275.03;;;12.07;70.84
48874;BME280;66155;46.204;5.220;2024-01-25T05:58:04;100271.84;;;12.09;70.98
48874;BME280;66155;46.204;5.220;2024-01-25T06:03:04;100278.13;;;12.13;70.77
48874;BME280;66155;46.204;5.220;2024-01-25T06:08:05;100278.47;;;12.15;70.85
48874;BME280;66155;46.204;5.220;2024-01-25T06:13:05;100286.75;;;12.19;70.75
48874;BME280;66155;46.204;5.220;2024-01-25T06:18:06;100288.66;;;12.22;70.70
48874;BME280;66155;46.204;5.220;2024-01-25T06:23:06;100283.47;;;12.24;70.68
48874;BME280;66155;46.204;5.220;2024-01-25T06:28:07;100289.03;;;12.24;70.79
48874;BME280;66155;46.204;5.220;2024-01-25T06:33:07;100300.16;;;12.24;70.78
48874;BME280;66155;46.204;5.220;2024-01-25T06:38:08;100285.22;;;12.14;71.32
48874;BME280;66155;46.204;5.220;2024-01-25T06:43:08;100289.59;;;12.15;71.00
48874;BME280;66155;46.204;5.220;2024-01-25T06:48:08;100304.25;;;12.15;70.88
48874;BME280;66155;46.204;5.220;2024-01-25T06:53:09;100297.56;;;12.13;70.88
48874;BME280;66155;46.204;5.220;2024-01-25T06:58:10;100295.88;;;12.19;70.83
48874;BME280;66155;46.204;5.220;2024-01-25T07:03:10;100294.59;;;12.24;70.63
48874;BME280;66155;46.204;5.220;2024-01-25T07:08:11;100298.03;;;12.31;70.67
48874;BME280;66155;46.204;5.220;2024-01-25T07:13:13;100275.34;;;12.36;70.54
48874;BME280;66155;46.204;5.220;2024-01-25T07:18:14;100273.34;;;12.37;70.59
48874;BME280;66155;46.204;5.220;2024-01-25T07:23:14;100265.78;;;12.37;70.97
48874;BME280;66155;46.204;5.220;2024-01-25T07:28:14;100261.38;;;12.40;70.97
48874;BME280;66155;46.204;5.220;2024-01-25T07:33:15;100259.84;;;12.35;71.17
48874;BME280;66155;46.204;5.220;2024-01-25T07:38:16;100275.75;;;12.35;71.27
48874;BME280;66155;46.204;5.220;2024-01-25T07:43:17;100274.88;;;12.38;70.78
48874;BME280;66155;46.204;5.220;2024-01-25T07:48:17;100277.19;;;12.43;71.05
48874;BME280;66155;46.204;5.220;2024-01-25T07:53:17;100271.88;;;12.52;70.68
48874;BME280;66155;46.204;5.220;2024-01-25T07:58:18;100262.59;;;12.58;70.75
48874;BME280;66155;46.204;5.220;2024-01-25T08:03:19;100267.59;;;12.67;70.47
48874;BME280;66155;46.204;5.220;2024-01-25T08:08:19;100252.34;;;12.75;70.53
48874;BME280;66155;46.204;5.220;2024-01-25T08:13:21;100271.41;;;12.77;70.33
48874;BME280;66155;46.204;5.220;2024-01-25T08:18:23;100276.41;;;12.85;70.49
48874;BME280;66155;46.204;5.220;2024-01-25T08:23:23;100254.16;;;12.85;70.45
48874;BME280;66155;46.204;5.220;2024-01-25T08:28:24;100249.66;;;12.91;70.45
48874;BME280;66155;46.204;5.220;2024-01-25T08:33:25;100250.22;;;13.02;70.46
48874;BME280;66155;46.204;5.220;2024-01-25T08:38:25;100248.38;;;13.16;70.10
48874;BME280;66155;46.204;5.220;2024-01-25T08:43:26;100254.16;;;13.25;70.01
48874;BME280;66155;46.204;5.220;2024-01-25T08:48:26;100246.84;;;13.31;70.01
48874;BME280;66155;46.204;5.220;2024-01-25T08:53:27;100233.03;;;13.43;69.87
48874;BME280;66155;46.204;5.220;2024-01-25T08:58:28;100233.63;;;13.54;69.80
48874;BME280;66155;46.204;5.220;2024-01-25T09:03:28;100235.25;;;13.68;69.56
48874;BME280;66155;46.204;5.220;2024-01-25T09:08:29;100239.34;;;13.80;69.52
48874;BME280;66155;46.204;5.220;2024-01-25T09:13:29;100230.47;;;13.85;69.32
48874;BME280;66155;46.204;5.220;2024-01-25T09:18:30;100241.34;;;13.95;69.24
48874;BME280;66155;46.204;5.220;2024-01-25T09:23:30;100238.66;;;14.08;69.25
48874;BME280;66155;46.204;5.220;2024-01-25T09:28:30;100234.38;;;14.20;69.00
48874;BME280;66155;46.204;5.220;2024-01-25T09:33:31;100238.53;;;14.28;68.75
48874;BME280;66155;46.204;5.220;2024-01-25T09:38:31;100240.22;;;14.41;68.63
48874;BME280;66155;46.204;5.220;2024-01-25T09:43:32;100235.13;;;14.53;68.46
48874;BME280;66155;46.204;5.220;2024-01-25T09:48:32;100238.16;;;14.58;68.42
48874;BME280;66155;46.204;5.220;2024-01-25T09:53:34;100234.50;;;14.61;67.75
48874;BME280;66155;46.204;5.220;2024-01-25T09:58:42;100227.69;;;14.62;67.43
48874;BME280;66155;46.204;5.220;2024-01-25T10:03:44;100232.91;;;14.60;67.81
48874;BME280;66155;46.204;5.220;2024-01-25T10:08:45;100247.84;;;14.54;67.84
48874;BME280;66155;46.204;5.220;2024-01-25T10:13:48;100238.59;;;14.57;67.24
48874;BME280;66155;46.204;5.220;2024-01-25T10:18:50;100255.78;;;14.55;67.37
48874;BME280;66155;46.204;5.220;2024-01-25T10:23:52;100246.19;;;14.56;66.61
48874;BME280;66155;46.204;5.220;2024-01-25T10:28:55;100250.00;;;14.62;67.28
48874;BME280;66155;46.204;5.220;2024-01-25T10:33:55;100239.19;;;14.64;66.62
48874;BME280;66155;46.204;5.220;2024-01-25T10:38:57;100240.53;;;14.60;66.32
48874;BME280;66155;46.204;5.220;2024-01-25T10:43:57;100238.28;;;14.55;66.49
48874;BME280;66155;46.204;5.220;2024-01-25T10:48:58;100225.63;;;14.50;66.57
48874;BME280;66155;46.204;5.220;2024-01-25T10:54:02;100226.66;;;14.56;66.71
48874;BME280;66155;46.204;5.220;2024-01-25T10:59:05;100220.66;;;14.58;66.66
48874;BME280;66155;46.204;5.220;2024-01-25T11:04:17;100222.13;;;14.62;66.38
48874;BME280;66155;46.204;5.220;2024-01-25T11:09:19;100224.66;;;14.57;66.58
48874;BME280;66155;46.204;5.220;2024-01-25T11:14:21;100214.00;;;14.39;66.59
48874;BME280;66155;46.204;5.220;2024-01-25T11:19:21;100205.78;;;14.32;66.94
48874;BME280;66155;46.204;5.220;2024-01-25T11:24:23;100200.84;;;14.23;66.58
48874;BME280;66155;46.204;5.220;2024-01-25T11:29:26;100182.50;;;14.10;67.01
48874;BME280;66155;46.204;5.220;2024-01-25T11:34:27;100185.72;;;14.08;66.89
48874;BME280;66155;46.204;5.220;2024-01-25T11:39:27;100175.72;;;14.11;66.84
48874;BME280;66155;46.204;5.220;2024-01-25T11:44:29;100177.88;;;14.19;66.79
48874;BME280;66155;46.204;5.220;2024-01-25T11:49:29;100172.03;;;14.14;66.53
48874;BME280;66155;46.204;5.220;2024-01-25T11:54:30;100162.00;;;14.16;66.67
48874;BME280;66155;46.204;5.220;2024-01-25T11:59:30;100169.31;;;14.26;66.46
48874;BME280;66155;46.204;5.220;2024-01-25T12:04:31;100168.25;;;14.36;66.51
48874;BME280;66155;46.204;5.220;2024-01-25T12:09:31;100152.69;;;14.39;66.59
48874;BME280;66155;46.204;5.220;2024-01-25T12:14:32;100141.47;;;14.55;66.14
48874;BME280;66155;46.204;5.220;2024-01-25T12:19:32;100133.66;;;14.63;65.98
48874;BME280;66155;46.204;5.220;2024-01-25T12:24:33;100130.00;;;14.66;65.85
48874;BME280;66155;46.204;5.220;2024-01-25T12:29:33;100118.06;;;14.78;65.52
48874;BME280;66155;46.204;5.220;2024-01-25T12:34:33;100126.47;;;14.90;65.60
48874;BME280;66155;46.204;5.220;2024-01-25T12:39:34;100115.06;;;14.98;65.04
48874;BME280;66155;46.204;5.220;2024-01-25T12:44:34;100110.72;;;15.09;65.31
48874;BME280;66155;46.204;5.220;2024-01-25T12:49:35;100105.72;;;15.04;64.63
48874;BME280;66155;46.204;5.220;2024-01-25T12:54:37;100098.13;;;14.92;64.71
48874;BME280;66155;46.204;5.220;2024-01-25T12:59:38;100100.34;;;14.84;64.59
48874;BME280;66155;46.204;5.220;2024-01-25T13:04:39;100111.06;;;14.86;64.72
48874;BME280;66155;46.204;5.220;2024-01-25T13:09:39;100095.00;;;14.90;64.85
48874;BME280;66155;46.204;5.220;2024-01-25T13:14:40;100097.13;;;15.11;64.36
48874;BME280;66155;46.204;5.220;2024-01-25T13:19:40;100090.41;;;15.09;63.51
48874;BME280;66155;46.204;5.220;2024-01-25T13:24:41;100084.38;;;15.10;64.01
48874;BME280;66155;46.204;5.220;2024-01-25T13:29:41;100078.13;;;15.19;63.66
48874;BME280;66155;46.204;5.220;2024-01-25T13:34:41;100079.16;;;15.12;62.93
48874;BME280;66155;46.204;5.220;2024-01-25T13:39:42;100077.59;;;15.11;63.01
48874;BME280;66155;46.204;5.220;2024-01-25T13:44:42;100078.13;;;15.06;63.09
48874;BME280;66155;46.204;5.220;2024-01-25T13:49:43;100090.53;;;15.05;63.51
48874;BME280;66155;46.204;5.220;2024-01-25T13:54:44;100070.56;;;15.07;63.18
48874;BME280;66155;46.204;5.220;2024-01-25T13:59:44;100063.97;;;15.01;62.90
48874;BME280;66155;46.204;5.220;2024-01-25T14:04:45;100051.13;;;15.03;62.94
48874;BME280;66155;46.204;5.220;2024-01-25T14:09:45;100031.06;;;15.08;62.78
48874;BME280;66155;46.204;5.220;2024-01-25T14:14:46;100041.84;;;15.19;62.52
48874;BME280;66155;46.204;5.220;2024-01-25T14:19:46;100045.97;;;15.27;62.53
48874;BME280;66155;46.204;5.220;2024-01-25T14:24:47;100040.91;;;15.34;61.85
48874;BME280;66155;46.204;5.220;2024-01-25T14:29:47;100036.53;;;15.46;61.71
48874;BME280;66155;46.204;5.220;2024-01-25T14:34:49;100029.50;;;15.54;61.84
48874;BME280;66155;46.204;5.220;2024-01-25T14:39:50;100019.09;;;15.89;62.12
48874;BME280;66155;46.204;5.220;2024-01-25T14:44:51;100019.16;;;16.20;61.38
48874;BME280;66155;46.204;5.220;2024-01-25T14:49:51;100032.47;;;16.16;61.43
48874;BME280;66155;46.204;5.220;2024-01-25T14:54:52;100033.00;;;16.02;61.77
48874;BME280;66155;46.204;5.220;2024-01-25T14:59:52;100026.63;;;15.79;61.31
48874;BME280;66155;46.204;5.220;2024-01-25T15:04:53;100029.38;;;15.58;61.52
48874;BME280;66155;46.204;5.220;2024-01-25T15:09:53;100025.66;;;15.26;61.45
48874;BME280;66155;46.204;5.220;2024-01-25T15:14:53;100033.03;;;15.20;61.19
48874;BME280;66155;46.204;5.220;2024-01-25T15:19:54;100032.50;;;15.00;61.41
48874;BME280;66155;46.204;5.220;2024-01-25T15:24:54;100035.41;;;14.84;61.49
48874;BME280;66155;46.204;5.220;2024-01-25T15:29:55;100028.59;;;14.72;61.27
48874;BME280;66155;46.204;5.220;2024-01-25T15:34:55;100030.38;;;14.66;61.47
48874;BME280;66155;46.204;5.220;2024-01-25T15:39:56;100030.25;;;14.57;61.40
48874;BME280;66155;46.204;5.220;2024-01-25T15:44:56;100033.16;;;14.54;61.46
48874;BME280;66155;46.204;5.220;2024-01-25T15:49:57;100025.59;;;14.79;61.05
48874;BME280;66155;46.204;5.220;2024-01-25T15:54:57;100038.50;;;15.24;59.71
48874;BME280;66155;46.204;5.220;2024-01-25T15:59:58;100027.34;;;15.11;59.83
48874;BME280;66155;46.204;5.220;2024-01-25T16:04:59;100027.91;;;14.93;60.24
48874;BME280;66155;46.204;5.220;2024-01-25T16:10:00;100031.97;;;14.80;60.70
48874;BME280;66155;46.204;5.220;2024-01-25T16:15:00;100030.81;;;14.65;60.81
48874;BME280;66155;46.204;5.220;2024-01-25T16:20:01;100033.41;;;14.59;60.77
48874;BME280;66155;46.204;5.220;2024-01-25T16:25:01;100036.19;;;14.59;60.69
48874;BME280;66155;46.204;5.220;2024-01-25T16:30:02;100029.59;;;14.53;60.77
48874;BME280;66155;46.204;5.220;2024-01-25T16:35:02;100039.28;;;14.48;61.22
48874;BME280;66155;46.204;5.220;2024-01-25T16:40:04;100035.50;;;14.42;61.16
48874;BME280;66155;46.204;5.220;2024-01-25T16:45:05;100030.53;;;14.34;61.21
48874;BME280;66155;46.204;5.220;2024-01-25T16:50:06;100040.44;;;14.22;61.41
48874;BME280;66155;46.204;5.220;2024-01-25T16:55:07;100050.44;;;14.07;61.68
48874;BME280;66155;46.204;5.220;2024-01-25T17:00:08;100048.28;;;13.98;62.06
48874;BME280;66155;46.204;5.220;2024-01-25T17:05:08;100056.28;;;13.96;61.89
48874;BME280;66155;46.204;5.220;2024-01-25T17:10:10;100062.31;;;13.95;61.99
48874;BME280;66155;46.204;5.220;2024-01-25T17:15:12;100071.53;;;13.92;62.43
48874;BME280;66155;46.204;5.220;2024-01-25T17:20:12;100062.78;;;13.77;62.40
48874;BME280;66155;46.204;5.220;2024-01-25T17:25:13;100062.41;;;13.63;62.35
48874;BME280;66155;46.204;5.220;2024-01-25T17:30:14;100052.81;;;13.47;62.54
48874;BME280;66155;46.204;5.220;2024-01-25T17:35:14;100059.72;;;13.27;63.51
48874;BME280;66155;46.204;5.220;2024-01-25T17:40:15;100060.91;;;13.09;63.42
48874;BME280;66155;46.204;5.220;2024-01-25T17:45:16;100052.91;;;12.95;63.96
48874;BME280;66155;46.204;5.220;2024-01-25T17:50:16;100049.31;;;12.79;63.89
48874;BME280;66155;46.204;5.220;2024-01-25T17:55:16;100046.00;;;12.68;64.18
48874;BME280;66155;46.204;5.220;2024-01-25T18:00:17;100051.03;;;12.56;64.07
48874;BME280;66155;46.204;5.220;2024-01-25T18:05:18;100051.59;;;12.48;64.15
48874;BME280;66155;46.204;5.220;2024-01-25T18:10:18;100051.84;;;12.37;64.21
48874;BME280;66155;46.204;5.220;2024-01-25T18:15:18;100067.03;;;12.33;64.03
48874;BME280;66155;46.204;5.220;2024-01-25T18:20:19;100068.78;;;12.23;64.42
48874;BME280;66155;46.204;5.220;2024-01-25T18:25:20;100062.69;;;12.12;64.97
48874;BME280;66155;46.204;5.220;2024-01-25T18:30:20;100059.38;;;11.97;65.83
48874;BME280;66155;46.204;5.220;2024-01-25T18:35:21;100054.47;;;11.85;66.36
48874;BME280;66155;46.204;5.220;2024-01-25T18:40:21;100058.16;;;11.79;66.42
48874;BME280;66155;46.204;5.220;2024-01-25T18:45:22;100060.28;;;11.71;65.98
48874;BME280;66155;46.204;5.220;2024-01-25T18:50:22;100056.13;;;11.59;66.88
48874;BME280;66155;46.204;5.220;2024-01-25T18:55:23;100068.09;;;11.56;67.02
48874;BME280;66155;46.204;5.220;2024-01-25T19:00:24;100055.47;;;11.52;66.87
48874;BME280;66155;46.204;5.220;2024-01-25T19:05:25;100051.25;;;11.44;67.27
48874;BME280;66155;46.204;5.220;2024-01-25T19:10:26;100059.69;;;11.37;67.03
48874;BME280;66155;46.204;5.220;2024-01-25T19:15:26;100054.56;;;11.35;66.74
48874;BME280;66155;46.204;5.220;2024-01-25T19:20:27;100056.91;;;11.37;66.12
48874;BME280;66155;46.204;5.220;2024-01-25T19:25:27;100061.25;;;11.38;66.11
48874;BME280;66155;46.204;5.220;2024-01-25T19:30:27;100060.91;;;11.36;66.36
48874;BME280;66155;46.204;5.220;2024-01-25T19:35:30;100060.25;;;11.28;66.46
48874;BME280;66155;46.204;5.220;2024-01-25T19:40:30;100062.72;;;11.22;66.68
48874;BME280;66155;46.204;5.220;2024-01-25T19:45:30;100066.38;;;11.16;66.76
48874;BME280;66155;46.204;5.220;2024-01-25T19:50:31;100058.47;;;11.14;66.47
48874;BME280;66155;46.204;5.220;2024-01-25T19:55:31;100063.25;;;11.14;66.47
48874;BME280;66155;46.204;5.220;2024-01-25T20:00:32;100053.84;;;11.08;66.63
48874;BME280;66155;46.204;5.220;2024-01-25T20:05:33;100060.66;;;11.03;66.67
48874;BME280;66155;46.204;5.220;2024-01-25T20:10:34;100056.03;;;10.93;67.16
48874;BME280;66155;46.204;5.220;2024-01-25T20:15:35;100056.16;;;10.86;67.24
48874;BME280;66155;46.204;5.220;2024-01-25T20:20:35;100052.66;;;10.82;66.96
48874;BME280;66155;46.204;5.220;2024-01-25T20:25:36;100056.31;;;10.75;67.30
48874;BME280;66155;46.204;5.220;2024-01-25T20:30:36;100057.19;;;10.69;67.05
48874;BME280;66155;46.204;5.220;2024-01-25T20:35:38;100045.81;;;10.63;67.32
48874;BME280;66155;46.204;5.220;2024-01-25T20:40:39;100037.97;;;10.58;67.48
48874;BME280;66155;46.204;5.220;2024-01-25T20:45:39;100049.84;;;10.59;67.89
48874;BME280;66155;46.204;5.220;2024-01-25T20:50:40;100040.00;;;10.54;67.74
48874;BME280;66155;46.204;5.220;2024-01-25T20:55:40;100031.34;;;10.49;67.63
48874;BME280;66155;46.204;5.220;2024-01-25T21:00:41;100031.34;;;10.49;68.00
48874;BME280;66155;46.204;5.220;2024-01-25T21:05:42;100027.75;;;10.52;68.09
48874;BME280;66155;46.204;5.220;2024-01-25T21:10:42;100015.00;;;10.58;68.04
48874;BME280;66155;46.204;5.220;2024-01-25T21:15:44;100022.00;;;10.66;67.72
48874;BME280;66155;46.204;5.220;2024-01-25T21:20:45;100012.38;;;10.74;67.61
48874;BME280;66155;46.204;5.220;2024-01-25T21:25:45;100010.34;;;10.78;68.17
48874;BME280;66155;46.204;5.220;2024-01-25T21:30:46;100009.16;;;10.79;68.21
48874;BME280;66155;46.204;5.220;2024-01-25T21:35:46;100007.53;;;10.82;68.14
48874;BME280;66155;46.204;5.220;2024-01-25T21:40:47;100010.16;;;10.89;68.36
48874;BME280;66155;46.204;5.220;2024-01-25T21:45:47;100009.75;;;10.90;68.25
48874;BME280;66155;46.204;5.220;2024-01-25T21:50:48;100004.22;;;10.90;68.29
48874;BME280;66155;46.204;5.220;2024-01-25T21:55:48;100000.13;;;10.98;68.21
48874;BME280;66155;46.204;5.220;2024-01-25T22:00:49;100005.53;;;11.05;67.85
48874;BME280;66155;46.204;5.220;2024-01-25T22:05:49;99992.16;;;11.00;68.10
48874;BME280;66155;46.204;5.220;2024-01-25T22:10:50;99996.38;;;11.08;68.13
48874;BME280;66155;46.204;5.220;2024-01-25T22:15:50;100005.53;;;11.05;67.99
48874;BME280;66155;46.204;5.220;2024-01-25T22:20:53;100001.91;;;11.08;67.73
48874;BME280;66155;46.204;5.220;2024-01-25T22:25:53;99991.81;;;10.98;67.99
48874;BME280;66155;46.204;5.220;2024-01-25T22:30:54;99989.88;;;10.95;68.44
48874;BME280;66155;46.204;5.220;2024-01-25T22:35:54;99982.03;;;10.90;68.04
48874;BME280;66155;46.204;5.220;2024-01-25T22:40:55;99972.59;;;10.88;68.18
48874;BME280;66155;46.204;5.220;2024-01-25T22:45:56;99963.50;;;10.87;68.49
48874;BME280;66155;46.204;5.220;2024-01-25T22:50:57;99963.13;;;10.85;68.43
48874;BME280;66155;46.204;5.220;2024-01-25T22:56:07;99969.44;;;10.86;69.25
48874;BME280;66155;46.204;5.220;2024-01-25T23:01:07;99960.09;;;10.76;68.60
48874;BME280;66155;46.204;5.220;2024-01-25T23:06:08;99959.38;;;10.72;68.78
48874;BME280;66155;46.204;5.220;2024-01-25T23:11:08;99955.84;;;10.71;68.61
48874;BME280;66155;46.204;5.220;2024-01-25T23:16:08;99963.72;;;10.73;68.86
48874;BME280;66155;46.204;5.220;2024-01-25T23:21:09;99955.00;;;10.74;68.72
48874;BME280;66155;46.204;5.220;2024-01-25T23:26:09;99954.19;;;10.74;68.79
48874;BME280;66155;46.204;5.220;2024-01-25T23:31:10;99940.75;;;10.72;68.80
48874;BME280;66155;46.204;5.220;2024-01-25T23:36:14;99953.81;;;10.72;68.89
48874;BME280;66155;46.204;5.220;2024-01-25T23:41:14;99954.44;;;10.83;68.41
48874;BME280;66155;46.204;5.220;2024-01-25T23:46:15;99964.56;;;10.93;68.13
48874;BME280;66155;46.204;5.220;2024-01-25T23:51:15;99951.06;;;10.95;68.07
48874;BME280;66155;46.204;5.220;2024-01-25T23:56:16;99953.06;;;10.95;68.16
